Connor Township, Maine
Current Conditions -  °F | °C
As of 9:54 PM on Wednesday 22 Oct 2014 (Local Time) from KCAR Reporting Station
Clear Clear  
Wind Chill: 40°   Ceiling: Unl
Heat Index: 44°   Visibility: 10mi
Dew Point: 36°   Wind: 8mph
Humidity: 73%   Direction: 30°NNE
Pressure: 30.3"   Gusts: NA
Location:  46.8928°N, 68.1493°W
Report Text: KCAR 230154Z AUTO 03007KT 10SM CLR 07/02 A3030 RMK AO2 RAB0055E12 SLP268 P0000 T00670022
Loading
Personal Weather Stations






























Interactive Weather Map
Tropical Storm Tracking
New forecast layout! Learn more

10-Day Weather Forecast

Advertisements
Track Severe Weather on mobile